Douglas, Bisbee-Douglas International Airport (KDUG)

NameBisbee-Douglas International Airport
CityDouglas
CountryUnited States
ICAOKDUG
IATADUG
Altitude1266 m
CoordinatesGoogle Map
Live Air TrafficLiveATC.net
METARKDUG 121056Z AUTO 31004KT 10SM SCT050 BKN060 04/03 A3007 RMK AO2 SLP155 T00390033
2018-12-12 10:56:00 Wind: West-Northwest (310°) 2.06 m/s - Visibility: 16093.4 m - Temperature: 4 °C - Dew point: 3 °C - Humidity: 93.3% - Pressure: 1018.29 hPa

Sorry, no flights used the airport in this database.